Ludlow, Pennsylvania
Current Conditions -  °F | °C
As of 7:53 PM on Monday 24 Nov 2014 (Local Time) from KBFD Reporting Station
Clear Clear  
Wind Chill: 51°   Ceiling: Unl
Heat Index: 51°   Visibility: 10mi
Dew Point: 38°   Wind: 9mph
Humidity: 61%   Direction: 240°WSW
Pressure: 29.62"   Gusts: 18mph
Location:  41.73°N, 78.94°W
Report Text: KBFD 250053Z AUTO 24008G16KT 10SM CLR 11/03 A2962 RMK AO2 SLP026 T01060033
Loading
Personal Weather Stations






























Interactive Weather Map New forecast layout! Learn more

10-Day Weather Forecast

Advertisements
Track Severe Weather on mobile